createdAt,value
2022-11-16T00:04:13.270Z,13.68
2022-11-16T00:09:44.115Z,15.95
2022-11-16T00:15:13.424Z,8.77
2022-11-16T00:20:42.372Z,8.40
2022-11-16T00:26:15.770Z,11.05
2022-11-16T00:31:39.899Z,14.07
2022-11-16T00:37:03.959Z,10.57
2022-11-16T00:42:29.068Z,9.43
2022-11-16T00:48:00.603Z,14.75
2022-11-16T00:53:25.189Z,14.23
2022-11-16T00:58:55.914Z,12.18
2022-11-16T01:04:18.394Z,12.52
2022-11-16T01:09:47.529Z,14.17
2022-11-16T01:15:14.763Z,10.23
2022-11-16T01:20:41.397Z,11.50
2022-11-16T01:26:04.777Z,13.20
2022-11-16T01:31:32.719Z,12.90
2022-11-16T01:36:59.126Z,11.25
2022-11-16T01:42:28.827Z,12.93
2022-11-16T01:47:57.191Z,8.73
2022-11-16T01:53:26.738Z,9.57
2022-11-16T01:58:53.428Z,13.57
2022-11-16T02:04:22.280Z,13.00
2022-11-16T02:10:06.797Z,9.40
2022-11-16T02:15:41.508Z,10.27
2022-11-16T02:21:29.225Z,9.73
2022-11-16T02:27:16.642Z,11.70
2022-11-16T02:32:47.510Z,14.20
2022-11-16T02:38:20.461Z,12.63
2022-11-16T02:43:49.566Z,13.02
2022-11-16T02:49:18.938Z,17.98
2022-11-16T02:54:48.792Z,15.80
2022-11-16T03:00:22.279Z,12.03
2022-11-16T03:05:53.348Z,18.42
2022-11-16T03:11:39.583Z,11.35
2022-11-16T03:17:12.811Z,11.50
2022-11-16T03:22:46.982Z,11.65
2022-11-16T03:28:16.358Z,12.80
2022-11-16T03:33:44.786Z,12.40
2022-11-16T03:39:16.800Z,20.27
2022-11-16T03:44:49.777Z,11.07
2022-11-16T03:50:13.938Z,13.50
2022-11-16T03:55:43.475Z,13.80
2022-11-16T04:01:11.447Z,11.82
2022-11-16T04:06:59.980Z,10.95
2022-11-16T04:12:42.747Z,13.23
2022-11-16T04:18:24.396Z,11.32
2022-11-16T04:24:07.471Z,12.60
2022-11-16T04:29:33.041Z,19.10
2022-11-16T04:35:15.024Z,12.73
2022-11-16T04:40:39.431Z,17.83
2022-11-16T04:46:21.699Z,21.02
2022-11-16T04:51:45.407Z,16.17
2022-11-16T04:57:08.003Z,19.85
2022-11-16T05:02:32.053Z,20.00
2022-11-16T05:07:57.100Z,17.92
2022-11-16T05:13:30.500Z,24.30
2022-11-16T05:19:19.676Z,46.20
2022-11-16T05:24:48.436Z,41.03
2022-11-16T05:30:17.854Z,29.77
2022-11-16T05:35:47.167Z,22.40
2022-11-16T05:41:12.292Z,22.77
2022-11-16T05:46:36.178Z,20.35
2022-11-16T05:52:06.637Z,18.40
2022-11-16T05:57:37.084Z,22.27
2022-11-16T06:03:01.541Z,18.90
2022-11-16T06:08:32.298Z,25.23
2022-11-16T06:14:00.523Z,16.58
2022-11-16T06:19:29.601Z,19.58
2022-11-16T06:24:57.864Z,38.63
2022-11-16T06:30:22.107Z,29.33
2022-11-16T06:35:51.514Z,31.85
2022-11-16T06:41:26.119Z,28.85
2022-11-16T06:46:55.245Z,27.52
2022-11-16T06:52:25.365Z,21.75
2022-11-16T06:57:55.890Z,24.63
2022-11-16T07:03:24.280Z,20.90
2022-11-16T07:08:54.507Z,24.20
2022-11-16T07:14:28.877Z,25.00
2022-11-16T07:19:58.315Z,24.65
2022-11-16T07:25:27.229Z,30.33
2022-11-16T07:30:57.649Z,28.37
2022-11-16T07:36:30.324Z,22.10
2022-11-16T07:42:00.645Z,34.90
2022-11-16T07:47:48.006Z,25.65
2022-11-16T07:53:24.351Z,27.73
2022-11-16T07:58:53.039Z,27.10
2022-11-16T08:04:23.819Z,23.05
2022-11-16T08:09:52.786Z,27.17
2022-11-16T08:15:23.310Z,25.75
2022-11-16T08:20:54.781Z,25.83
2022-11-16T08:26:24.033Z,30.25
2022-11-16T08:32:01.229Z,23.15
2022-11-16T08:37:32.234Z,24.08
2022-11-16T08:43:01.690Z,27.33
2022-11-16T08:48:30.111Z,33.72
2022-11-16T08:54:01.700Z,39.08
2022-11-16T08:59:30.317Z,34.20
2022-11-16T09:05:04.636Z,33.28
2022-11-16T09:10:34.962Z,36.90
2022-11-16T09:16:05.652Z,34.03
2022-11-16T09:21:36.497Z,36.00
2022-11-16T09:27:06.809Z,29.73
2022-11-16T09:32:35.270Z,33.33
2022-11-16T09:38:05.008Z,36.17
2022-11-16T09:43:47.018Z,28.95
2022-11-16T09:49:22.057Z,41.58
2022-11-16T09:54:54.205Z,27.00
2022-11-16T10:00:25.614Z,37.75
2022-11-16T10:06:02.803Z,36.03
2022-11-16T10:11:56.410Z,26.77
2022-11-16T10:17:38.263Z,25.40
2022-11-16T10:23:16.528Z,28.67
2022-11-16T10:29:00.832Z,20.63
2022-11-16T10:34:38.466Z,26.58
2022-11-16T10:40:18.538Z,35.13
2022-11-16T10:45:53.117Z,23.67
2022-11-16T10:51:23.987Z,20.45
2022-11-16T10:57:01.141Z,24.25
2022-11-16T11:02:34.715Z,27.17
2022-11-16T11:08:07.395Z,24.77
2022-11-16T11:13:36.707Z,24.67
2022-11-16T11:19:20.316Z,27.63
2022-11-16T11:24:49.853Z,27.38
2022-11-16T11:30:23.219Z,21.85
2022-11-16T11:36:03.580Z,26.17
2022-11-16T11:41:37.783Z,37.10
2022-11-16T11:47:55.711Z,28.58
2022-11-16T11:53:08.575Z,19.90
2022-11-16T11:58:40.745Z,27.17
2022-11-16T12:04:37.963Z,30.65
2022-11-16T12:10:10.515Z,25.05
2022-11-16T12:15:51.515Z,28.98
2022-11-16T12:21:21.069Z,29.08
2022-11-16T12:26:59.657Z,30.38
2022-11-16T12:32:43.705Z,24.98
2022-11-16T12:38:29.806Z,25.20
2022-11-16T12:44:00.668Z,32.75
2022-11-16T12:49:50.066Z,31.95
2022-11-16T12:55:26.449Z,31.02
2022-11-16T13:00:59.729Z,30.17
2022-11-16T13:06:34.156Z,29.88
2022-11-16T13:12:07.538Z,31.25
2022-11-16T13:17:39.103Z,28.30
2022-11-16T13:23:10.520Z,28.08
2022-11-16T13:28:41.162Z,38.25
2022-11-16T13:34:17.154Z,33.60
2022-11-16T13:40:20.796Z,30.63
2022-11-16T13:45:57.023Z,35.95
2022-11-16T13:51:26.239Z,36.83
2022-11-16T13:56:57.953Z,32.08
2022-11-16T14:02:32.306Z,38.47
2022-11-16T14:08:45.301Z,56.63
2022-11-16T14:15:05.408Z,44.10
2022-11-16T14:20:58.064Z,63.40
2022-11-16T14:26:37.334Z,54.40
2022-11-16T14:37:57.165Z,56.30
2022-11-16T14:43:30.433Z,50.57
2022-11-16T14:49:03.547Z,54.72
2022-11-16T14:54:38.252Z,46.65
2022-11-16T15:00:09.862Z,30.73
2022-11-16T15:05:40.249Z,26.95
2022-11-16T15:11:21.022Z,17.50
2022-11-16T15:16:51.894Z,18.30
2022-11-16T15:22:23.789Z,16.75
2022-11-16T15:27:53.429Z,20.85
2022-11-16T15:38:58.703Z,22.15
2022-11-16T15:44:27.903Z,22.67
2022-11-16T15:49:56.356Z,23.70
2022-11-16T15:55:31.923Z,18.20
2022-11-16T16:01:00.895Z,20.92
2022-11-16T16:06:47.542Z,20.92
2022-11-16T16:12:20.016Z,19.98
2022-11-16T16:17:48.616Z,18.08
2022-11-16T16:23:26.199Z,20.10
2022-11-16T16:28:56.999Z,18.88
2022-11-16T16:39:54.432Z,24.77
2022-11-16T16:45:33.715Z,22.98
2022-11-16T16:51:02.347Z,21.80
2022-11-16T16:56:31.777Z,17.33
2022-11-16T17:02:02.217Z,20.60
2022-11-16T17:07:31.826Z,21.52
2022-11-16T17:13:02.751Z,17.53
2022-11-16T17:18:28.020Z,17.27
2022-11-16T17:23:56.706Z,20.83
2022-11-16T17:29:25.457Z,20.63
2022-11-16T17:34:50.160Z,20.83
2022-11-16T17:40:15.102Z,22.25
2022-11-16T17:45:44.314Z,19.67
2022-11-16T17:51:09.605Z,17.80
2022-11-16T17:56:38.880Z,19.17
2022-11-16T18:02:02.537Z,14.95
2022-11-16T18:07:27.399Z,19.35
2022-11-16T18:12:50.981Z,13.95
2022-11-16T18:18:14.860Z,16.27
2022-11-16T18:23:40.349Z,15.10
2022-11-16T18:29:04.196Z,18.85
2022-11-16T18:34:27.169Z,14.70
2022-11-16T18:39:58.181Z,10.88
2022-11-16T18:45:21.930Z,10.95
2022-11-16T18:50:50.871Z,11.53
2022-11-16T18:56:22.651Z,11.77
2022-11-16T19:01:50.055Z,10.00
2022-11-16T19:07:19.664Z,14.32
2022-11-16T19:12:49.741Z,9.98
2022-11-16T19:18:20.956Z,8.18
2022-11-16T19:23:53.545Z,9.95
2022-11-16T19:29:23.943Z,17.15
2022-11-16T19:34:52.761Z,8.95
2022-11-16T19:40:25.010Z,8.70
2022-11-16T19:45:55.835Z,12.82
2022-11-16T19:51:26.240Z,12.75
2022-11-16T19:56:55.662Z,18.52
2022-11-16T20:02:21.517Z,14.13
2022-11-16T20:07:50.919Z,15.02
2022-11-16T20:13:15.008Z,17.52
2022-11-16T20:18:40.838Z,20.88
2022-11-16T20:24:06.995Z,18.58
2022-11-16T20:29:36.451Z,17.40
2022-11-16T20:35:00.515Z,17.27
2022-11-16T20:40:27.620Z,22.47
2022-11-16T20:45:55.432Z,21.08
2022-11-16T20:51:26.336Z,16.58
2022-11-16T20:56:50.324Z,10.95
2022-11-16T21:02:13.452Z,15.35
2022-11-16T21:07:44.159Z,23.25
2022-11-16T21:13:25.674Z,22.15
2022-11-16T21:18:54.146Z,14.93
2022-11-16T21:24:24.820Z,16.42
2022-11-16T21:29:53.632Z,17.23
2022-11-16T21:35:17.903Z,12.18
2022-11-16T21:40:48.195Z,15.02
2022-11-16T21:46:15.873Z,13.95
2022-11-16T21:51:40.742Z,17.13
2022-11-16T21:57:07.736Z,11.95
2022-11-16T22:02:31.145Z,10.63
2022-11-16T22:07:58.172Z,16.70
2022-11-16T22:13:28.947Z,12.27
2022-11-16T22:18:52.245Z,11.73
2022-11-16T22:24:21.706Z,19.80
2022-11-16T22:29:52.016Z,21.57
2022-11-16T22:35:20.119Z,14.15
2022-11-16T22:40:51.583Z,16.67
2022-11-16T22:46:21.893Z,17.23
2022-11-16T22:51:47.272Z,21.27
2022-11-16T22:57:10.987Z,16.02
2022-11-16T23:02:41.240Z,14.33
2022-11-16T23:08:10.425Z,14.60
2022-11-16T23:13:57.111Z,15.48
2022-11-16T23:19:41.895Z,18.88
2022-11-16T23:25:30.266Z,20.67
2022-11-16T23:31:02.408Z,16.15
2022-11-16T23:36:33.295Z,20.58
2022-11-16T23:42:19.987Z,32.00
2022-11-16T23:47:48.572Z,41.25
2022-11-16T23:53:14.815Z,23.48
2022-11-16T23:58:43.312Z,18.60
